createdAt,value
2019-02-07T00:01:34.422Z,-1.01
2019-02-07T00:03:43.938Z,-1.02
2019-02-07T00:05:53.342Z,-1.06
2019-02-07T00:08:00.528Z,-1.09
2019-02-07T00:10:17.506Z,-1.10
2019-02-07T00:12:26.018Z,-1.09
2019-02-07T00:14:39.779Z,-1.08
2019-02-07T00:16:48.636Z,-1.07
2019-02-07T00:18:55.645Z,-1.06
2019-02-07T00:21:04.146Z,-1.07
2019-02-07T00:23:12.493Z,-1.09
2019-02-07T00:25:19.547Z,-1.12
2019-02-07T00:27:28.137Z,-1.11
2019-02-07T00:29:41.449Z,-1.14
2019-02-07T00:31:49.725Z,-1.13
2019-02-07T00:33:59.755Z,-1.16
2019-02-07T00:36:08.106Z,-1.24
2019-02-07T00:38:18.597Z,-1.25
2019-02-07T00:40:28.048Z,-1.26
2019-02-07T00:42:37.979Z,-1.26
2019-02-07T00:44:51.054Z,-1.26
2019-02-07T00:46:55.110Z,-1.25
2019-02-07T00:49:01.560Z,-1.23
2019-02-07T00:51:08.497Z,-1.23
2019-02-07T00:53:18.572Z,-1.21
2019-02-07T00:55:27.016Z,-1.23
2019-02-07T00:57:36.067Z,-1.22
2019-02-07T00:59:43.657Z,-1.26
2019-02-07T01:01:53.876Z,-1.31
2019-02-07T01:04:01.046Z,-1.31
2019-02-07T01:06:11.366Z,-1.33
2019-02-07T01:08:20.062Z,-1.36
2019-02-07T01:10:32.265Z,-1.41
2019-02-07T01:12:40.582Z,-1.39
2019-02-07T01:14:47.660Z,-1.39
2019-02-07T01:16:54.631Z,-1.38
2019-02-07T01:19:01.464Z,-1.39
2019-02-07T01:21:10.655Z,-1.36
2019-02-07T01:23:17.775Z,-1.40
2019-02-07T01:25:26.216Z,-1.41
2019-02-07T01:27:35.919Z,-1.40
2019-02-07T01:29:44.509Z,-1.37
2019-02-07T01:31:52.559Z,-1.36
2019-02-07T01:34:02.634Z,-1.38
2019-02-07T01:36:10.720Z,-1.42
2019-02-07T01:38:17.598Z,-1.45
2019-02-07T01:40:24.946Z,-1.52
2019-02-07T01:42:32.107Z,-1.57
2019-02-07T01:44:46.130Z,-1.61
2019-02-07T01:46:54.241Z,-1.67
2019-02-07T01:49:05.541Z,-1.70
2019-02-07T01:51:16.956Z,-1.74
2019-02-07T01:53:24.043Z,-1.79
2019-02-07T01:55:34.204Z,-1.82
2019-02-07T01:57:40.883Z,-1.83
2019-02-07T01:59:51.034Z,-1.86
2019-02-07T02:01:59.109Z,-1.87
2019-02-07T02:04:08.364Z,-1.91
2019-02-07T02:06:16.033Z,-1.91
2019-02-07T02:08:25.904Z,-1.86
2019-02-07T02:10:33.351Z,-1.84
2019-02-07T02:12:40.583Z,-1.81
2019-02-07T02:14:47.604Z,-1.73
2019-02-07T02:16:57.205Z,-1.68
2019-02-07T02:19:09.855Z,-1.65
2019-02-07T02:21:20.825Z,-1.57
2019-02-07T02:23:29.002Z,-1.52
2019-02-07T02:25:37.774Z,-1.54
2019-02-07T02:27:45.760Z,-1.48
2019-02-07T02:29:54.369Z,-1.45
2019-02-07T02:32:01.274Z,-1.39
2019-02-07T02:34:08.662Z,-1.36
2019-02-07T02:36:17.893Z,-1.35
2019-02-07T02:38:26.756Z,-1.31
2019-02-07T02:40:33.556Z,-1.23
2019-02-07T02:42:40.186Z,-1.22
2019-02-07T02:44:47.519Z,-1.24
2019-02-07T02:46:54.678Z,-1.18
2019-02-07T02:49:01.644Z,-1.15
2019-02-07T02:51:10.218Z,-1.12
2019-02-07T02:53:17.239Z,-1.03
2019-02-07T02:55:40.614Z,-1.06
2019-02-07T02:57:49.646Z,-1.03
2019-02-07T03:02:28.854Z,-1.02
2019-02-07T03:04:43.333Z,-0.99
2019-02-07T03:07:11.673Z,-0.93
2019-02-07T03:09:38.452Z,-0.92
2019-02-07T03:12:03.623Z,-0.86
2019-02-07T03:14:18.145Z,-0.86
2019-02-07T03:16:26.433Z,-0.83
2019-02-07T03:18:45.484Z,-0.80
2019-02-07T03:20:52.386Z,-0.77
2019-02-07T03:23:04.266Z,-0.77
2019-02-07T03:25:27.570Z,-0.82
2019-02-07T03:27:40.188Z,-0.81
2019-02-07T03:30:06.090Z,-0.81
2019-02-07T03:32:31.410Z,-0.80
2019-02-07T03:34:40.219Z,-0.79
2019-02-07T03:36:49.927Z,-0.77
2019-02-07T03:39:10.710Z,-0.77
2019-02-07T03:41:35.051Z,-0.80
2019-02-07T03:43:52.268Z,-0.83
2019-02-07T03:46:10.807Z,-0.90
2019-02-07T03:48:25.228Z,-0.95
2019-02-07T03:50:35.117Z,-1.03
2019-02-07T03:53:02.062Z,-1.14
2019-02-07T03:55:27.062Z,-1.23
2019-02-07T03:57:51.381Z,-1.31
2019-02-07T04:00:01.499Z,-1.38
2019-02-07T04:02:08.247Z,-1.45
2019-02-07T04:04:32.541Z,-1.49
2019-02-07T04:06:42.497Z,-1.54
2019-02-07T04:08:54.389Z,-1.58
2019-02-07T04:11:02.638Z,-1.61
2019-02-07T04:13:12.480Z,-1.63
2019-02-07T04:15:37.138Z,-1.67
2019-02-07T04:18:01.503Z,-1.72
2019-02-07T04:20:15.514Z,-1.76
2019-02-07T04:22:34.504Z,-1.79
2019-02-07T04:24:55.096Z,-1.83
2019-02-07T04:27:23.065Z,-1.88
2019-02-07T04:29:31.290Z,-1.92
2019-02-07T04:31:44.388Z,-1.97
2019-02-07T04:34:05.100Z,-2.01
2019-02-07T04:36:19.568Z,-2.05
2019-02-07T04:38:29.211Z,-2.11
2019-02-07T04:40:46.720Z,-2.13
2019-02-07T04:43:01.075Z,-2.17
2019-02-07T04:45:16.744Z,-2.19
2019-02-07T04:47:29.564Z,-2.24
2019-02-07T04:49:54.319Z,-2.29
2019-02-07T04:52:05.731Z,-2.33
2019-02-07T04:54:19.111Z,-2.36
2019-02-07T04:56:31.681Z,-2.36
2019-02-07T04:58:37.983Z,-2.37
2019-02-07T05:00:51.032Z,-2.39
2019-02-07T05:02:59.512Z,-2.42
2019-02-07T05:05:10.530Z,-2.43
2019-02-07T05:07:22.838Z,-2.45
2019-02-07T05:09:48.129Z,-2.47
2019-02-07T05:11:59.608Z,-2.48
2019-02-07T05:14:17.198Z,-2.45
2019-02-07T05:16:39.556Z,-2.47
2019-02-07T05:19:03.566Z,-2.49
2019-02-07T05:21:16.692Z,-2.53
2019-02-07T05:23:33.104Z,-2.58
2019-02-07T05:25:56.653Z,-2.62
2019-02-07T05:28:04.705Z,-2.64
2019-02-07T05:30:27.187Z,-2.65
2019-02-07T05:32:51.887Z,-2.69
2019-02-07T05:35:01.576Z,-2.69
2019-02-07T05:37:18.200Z,-2.65
2019-02-07T05:39:43.139Z,-2.66
2019-02-07T05:41:49.813Z,-2.70
2019-02-07T05:44:15.719Z,-2.73
2019-02-07T05:46:22.212Z,-2.73
2019-02-07T05:48:31.751Z,-2.72
2019-02-07T05:50:38.373Z,-2.75
2019-02-07T05:52:44.963Z,-2.77
2019-02-07T05:55:05.642Z,-2.80
2019-02-07T05:57:16.661Z,-2.84
2019-02-07T05:59:36.104Z,-2.87
2019-02-07T06:02:02.630Z,-2.87
2019-02-07T06:04:14.175Z,-2.89
2019-02-07T06:06:39.267Z,-2.91
2019-02-07T06:08:50.488Z,-2.92
2019-02-07T06:11:14.977Z,-2.94
2019-02-07T06:13:35.275Z,-2.94
2019-02-07T06:15:47.268Z,-2.95
2019-02-07T06:18:11.758Z,-2.95
2019-02-07T06:20:35.517Z,-2.96
2019-02-07T06:22:54.589Z,-2.96
2019-02-07T06:25:02.879Z,-2.97
2019-02-07T06:27:29.524Z,-2.99
2019-02-07T06:29:41.254Z,-3.00
2019-02-07T06:31:54.653Z,-2.86
2019-02-07T06:34:28.560Z,-2.11
2019-02-07T06:36:38.953Z,-2.22
2019-02-07T06:38:49.109Z,-2.40
2019-02-07T06:41:02.422Z,-2.41
2019-02-07T06:43:27.084Z,-2.44
2019-02-07T06:45:53.408Z,-2.50
2019-02-07T06:48:15.036Z,-2.53
2019-02-07T06:50:26.148Z,-2.55
2019-02-07T06:52:46.889Z,-2.59
2019-02-07T06:54:57.913Z,-2.60
2019-02-07T06:57:11.090Z,-2.59
2019-02-07T06:59:31.690Z,-2.57
2019-02-07T07:01:46.182Z,-2.56
2019-02-07T07:03:54.600Z,-2.57
2019-02-07T07:06:04.822Z,-2.54
2019-02-07T07:08:12.763Z,-2.48
2019-02-07T07:10:29.645Z,-2.45
2019-02-07T07:12:38.122Z,-2.38
2019-02-07T07:15:02.733Z,-2.32
2019-02-07T07:17:27.572Z,-2.27
2019-02-07T07:19:36.182Z,-2.20
2019-02-07T07:21:44.958Z,-2.18
2019-02-07T07:24:08.255Z,-2.13
2019-02-07T07:26:18.663Z,-2.05
2019-02-07T07:28:28.230Z,-2.11
2019-02-07T07:30:42.668Z,-2.09
2019-02-07T07:32:53.838Z,-2.01
2019-02-07T07:35:04.120Z,-2.00
2019-02-07T07:37:28.952Z,-1.93
2019-02-07T07:39:38.975Z,-1.90
2019-02-07T07:42:02.439Z,-1.87
2019-02-07T07:44:28.844Z,-1.86
2019-02-07T07:46:43.264Z,-1.81
2019-02-07T07:48:57.872Z,-1.77
2019-02-07T07:51:12.382Z,-1.75
2019-02-07T07:53:20.892Z,-1.75
2019-02-07T07:55:29.324Z,-1.83
2019-02-07T07:57:46.357Z,-1.84
2019-02-07T07:59:57.709Z,-1.79
2019-02-07T08:02:06.526Z,-1.84
2019-02-07T08:04:13.066Z,-1.80
2019-02-07T08:06:29.059Z,-1.80
2019-02-07T08:08:49.352Z,-1.74
2019-02-07T08:10:59.198Z,-1.73
2019-02-07T08:13:20.978Z,-1.73
2019-02-07T08:15:38.355Z,-1.67
2019-02-07T08:17:51.678Z,-1.64
2019-02-07T08:20:04.400Z,-1.59
2019-02-07T08:22:15.765Z,-1.59
2019-02-07T08:24:41.898Z,-1.58
2019-02-07T08:27:04.147Z,-1.49
2019-02-07T08:29:13.405Z,-1.44
2019-02-07T08:31:28.133Z,-1.37
2019-02-07T08:33:51.326Z,-1.33
2019-02-07T08:36:14.742Z,-1.33
2019-02-07T08:38:30.612Z,-1.30
2019-02-07T08:40:45.192Z,-1.27
2019-02-07T08:43:09.042Z,-1.27
2019-02-07T08:45:28.841Z,-1.15
2019-02-07T08:47:43.014Z,-1.13
2019-02-07T08:49:52.520Z,-1.07
2019-02-07T08:52:11.672Z,-1.03
2019-02-07T08:54:33.412Z,-0.94
2019-02-07T08:56:44.728Z,-0.86
2019-02-07T08:58:59.013Z,-0.87
2019-02-07T09:01:11.519Z,-0.75
2019-02-07T09:03:30.598Z,-0.68
2019-02-07T09:05:42.104Z,-0.66
2019-02-07T09:07:56.633Z,-0.59
2019-02-07T09:10:12.619Z,-0.50
2019-02-07T09:12:37.051Z,-0.47
2019-02-07T09:14:54.388Z,-0.39
2019-02-07T09:17:02.735Z,-0.24
2019-02-07T09:19:17.203Z,-0.12
2019-02-07T09:21:41.760Z,-0.19
2019-02-07T09:23:48.551Z,-0.11
2019-02-07T09:26:13.231Z,-0.09
2019-02-07T09:28:24.868Z,0.02
2019-02-07T09:30:49.510Z,0.07
2019-02-07T09:32:55.869Z,0.20
2019-02-07T09:35:10.131Z,0.25
2019-02-07T09:37:35.269Z,0.29
2019-02-07T09:39:43.881Z,0.30
2019-02-07T09:42:10.721Z,0.42
2019-02-07T09:44:28.082Z,0.45
2019-02-07T09:46:54.801Z,0.52
2019-02-07T09:49:03.451Z,0.55
2019-02-07T09:51:13.491Z,0.57
2019-02-07T09:53:29.603Z,0.64
2019-02-07T09:55:43.611Z,0.69
2019-02-07T09:58:06.592Z,0.76
2019-02-07T10:00:27.991Z,0.73
2019-02-07T10:02:54.839Z,0.78
2019-02-07T10:05:13.882Z,0.81
2019-02-07T10:07:30.343Z,0.96
2019-02-07T10:09:39.108Z,1.00
2019-02-07T10:12:04.241Z,1.16
2019-02-07T10:14:21.751Z,1.23
2019-02-07T10:16:30.301Z,1.28
2019-02-07T10:18:39.231Z,1.31
2019-02-07T10:20:54.051Z,1.37
2019-02-07T10:23:13.119Z,1.38
2019-02-07T10:25:27.813Z,1.37
2019-02-07T10:27:37.756Z,1.49
2019-02-07T10:30:02.451Z,1.48
2019-02-07T10:32:11.889Z,1.52
2019-02-07T10:34:20.181Z,1.48
2019-02-07T10:36:45.813Z,1.50
2019-02-07T10:39:00.660Z,1.55
2019-02-07T10:41:20.755Z,1.55
2019-02-07T10:43:29.522Z,1.64
2019-02-07T10:45:39.718Z,1.65
2019-02-07T10:48:02.178Z,1.67
2019-02-07T10:50:17.961Z,1.74
2019-02-07T10:52:31.965Z,1.82
2019-02-07T10:54:47.481Z,1.89
2019-02-07T10:57:00.335Z,1.98
2019-02-07T10:59:14.833Z,2.14
2019-02-07T11:01:36.097Z,2.17
2019-02-07T11:03:56.604Z,2.20
2019-02-07T11:06:05.130Z,2.37
2019-02-07T11:08:24.177Z,2.47
2019-02-07T11:10:50.983Z,2.60
2019-02-07T11:13:11.142Z,2.71
2019-02-07T11:15:28.541Z,2.85
2019-02-07T11:17:53.121Z,2.88
2019-02-07T11:20:06.372Z,2.91
2019-02-07T11:22:22.953Z,2.93
2019-02-07T11:24:35.053Z,3.08
2019-02-07T11:27:01.882Z,3.13
2019-02-07T11:29:10.388Z,3.26
2019-02-07T11:31:24.578Z,3.18
2019-02-07T11:33:32.968Z,3.29
2019-02-07T11:35:47.562Z,3.39
2019-02-07T11:38:10.997Z,3.28
2019-02-07T11:40:41.229Z,3.37
2019-02-07T11:42:53.850Z,3.53
2019-02-07T11:45:11.450Z,3.49
2019-02-07T11:47:21.472Z,3.28
2019-02-07T11:49:29.981Z,3.21
2019-02-07T11:51:54.482Z,3.25
2019-02-07T11:54:21.521Z,3.31
2019-02-07T11:56:31.081Z,3.22
2019-02-07T11:58:43.611Z,3.02
2019-02-07T12:01:06.721Z,2.98
2019-02-07T12:03:13.381Z,2.81
2019-02-07T12:05:20.169Z,2.89
2019-02-07T12:07:34.307Z,2.85
2019-02-07T12:09:58.041Z,2.98
2019-02-07T12:12:22.882Z,3.08
2019-02-07T12:14:38.039Z,2.98
2019-02-07T12:17:06.101Z,3.02
2019-02-07T12:22:01.949Z,3.01
2019-02-07T12:24:14.491Z,2.99
2019-02-07T12:26:39.498Z,2.93
2019-02-07T12:28:46.322Z,2.99
2019-02-07T12:31:05.811Z,3.03
2019-02-07T12:33:18.813Z,3.03
2019-02-07T12:35:28.544Z,3.23
2019-02-07T12:37:41.374Z,3.24
2019-02-07T12:40:07.982Z,3.01
2019-02-07T12:42:16.378Z,3.07
2019-02-07T12:44:30.606Z,3.14
2019-02-07T12:46:58.235Z,3.14
2019-02-07T12:49:08.482Z,3.20
2019-02-07T12:51:22.931Z,3.20
2019-02-07T12:53:31.946Z,3.26
2019-02-07T12:55:56.060Z,3.29
2019-02-07T12:58:21.571Z,3.32
2019-02-07T13:00:36.481Z,3.34
2019-02-07T13:02:59.041Z,3.26
2019-02-07T13:05:31.371Z,3.38
2019-02-07T13:07:43.071Z,3.40
2019-02-07T13:10:09.560Z,3.42
2019-02-07T13:12:35.979Z,3.49
2019-02-07T13:15:01.691Z,3.59
2019-02-07T13:17:28.323Z,3.62
2019-02-07T13:19:40.765Z,3.50
2019-02-07T13:21:51.740Z,3.45
2019-02-07T13:24:19.502Z,3.50
2019-02-07T13:26:35.995Z,3.61
2019-02-07T13:28:46.359Z,3.45
2019-02-07T13:31:05.899Z,3.50
2019-02-07T13:33:30.393Z,3.53
2019-02-07T13:35:39.095Z,3.43
2019-02-07T13:37:49.150Z,3.44
2019-02-07T13:40:00.682Z,3.46
2019-02-07T13:42:27.171Z,3.53
2019-02-07T13:44:40.391Z,3.55
2019-02-07T13:46:51.671Z,3.54
2019-02-07T13:49:09.952Z,3.59
2019-02-07T13:51:35.729Z,3.58
2019-02-07T13:53:51.300Z,3.53
2019-02-07T13:56:17.111Z,3.57
2019-02-07T13:58:28.601Z,3.62
2019-02-07T14:00:37.213Z,3.58
2019-02-07T14:02:51.289Z,3.51
2019-02-07T14:05:11.968Z,3.48
2019-02-07T14:07:29.803Z,3.38
2019-02-07T14:09:48.241Z,3.34
2019-02-07T14:12:16.349Z,3.36
2019-02-07T14:14:27.441Z,3.35
2019-02-07T14:16:55.044Z,3.29
2019-02-07T14:19:15.284Z,3.24
2019-02-07T14:21:29.550Z,3.09
2019-02-07T14:23:55.111Z,3.00
2019-02-07T14:26:17.562Z,3.03
2019-02-07T14:28:27.438Z,3.05
2019-02-07T14:30:54.831Z,3.09
2019-02-07T14:33:22.583Z,3.09
2019-02-07T14:35:51.909Z,3.07
2019-02-07T14:38:08.471Z,3.10
2019-02-07T14:40:20.873Z,3.04
2019-02-07T14:42:50.144Z,3.02
2019-02-07T14:45:07.487Z,2.97
2019-02-07T14:47:14.664Z,2.91
2019-02-07T14:49:23.121Z,2.85
2019-02-07T14:51:36.381Z,2.84
2019-02-07T14:53:45.686Z,2.82
2019-02-07T14:55:53.744Z,2.76
2019-02-07T14:58:00.861Z,2.69
2019-02-07T15:00:18.209Z,2.60
2019-02-07T15:04:45.171Z,2.50
2019-02-07T15:06:52.318Z,2.44
2019-02-07T15:08:59.431Z,2.39
2019-02-07T15:11:08.661Z,2.37
2019-02-07T15:13:17.149Z,2.35
2019-02-07T15:15:24.238Z,2.33
2019-02-07T15:17:30.892Z,2.30
2019-02-07T15:19:39.825Z,2.27
2019-02-07T15:21:51.100Z,2.21
2019-02-07T15:23:58.150Z,2.18
2019-02-07T15:26:07.842Z,2.13
2019-02-07T15:28:16.019Z,2.10
2019-02-07T15:30:24.123Z,2.03
2019-02-07T15:32:30.944Z,1.99
2019-02-07T15:34:39.327Z,1.98
2019-02-07T15:36:46.300Z,1.93
2019-02-07T15:38:53.171Z,1.91
2019-02-07T15:41:00.767Z,1.85
2019-02-07T15:43:12.067Z,1.83
2019-02-07T15:45:19.128Z,1.85
2019-02-07T15:47:26.150Z,1.89
2019-02-07T15:49:34.847Z,1.86
2019-02-07T15:51:42.387Z,1.88
2019-02-07T15:53:50.934Z,1.86
2019-02-07T15:55:58.186Z,1.84
2019-02-07T15:58:05.537Z,1.82
2019-02-07T16:00:23.987Z,1.79
2019-02-07T16:02:30.646Z,1.76
2019-02-07T16:04:37.407Z,1.73
2019-02-07T16:06:44.327Z,1.69
2019-02-07T16:08:50.811Z,1.69
2019-02-07T16:10:57.967Z,1.69
2019-02-07T16:13:06.687Z,1.68
2019-02-07T16:15:15.186Z,1.64
2019-02-07T16:17:25.336Z,1.68
2019-02-07T16:19:32.867Z,1.67
2019-02-07T16:21:39.607Z,1.67
2019-02-07T16:23:47.907Z,1.67
2019-02-07T16:25:54.667Z,1.67
2019-02-07T16:28:02.892Z,1.65
2019-02-07T16:30:21.774Z,1.64
2019-02-07T16:32:31.605Z,1.67
2019-02-07T16:34:39.887Z,1.66
2019-02-07T16:36:48.906Z,1.66
2019-02-07T16:38:55.647Z,1.66
2019-02-07T16:41:02.511Z,1.67
2019-02-07T16:43:10.263Z,1.64
2019-02-07T16:45:26.168Z,1.63
2019-02-07T16:47:32.866Z,1.61
2019-02-07T16:49:44.774Z,1.63
2019-02-07T16:51:53.288Z,1.61
2019-02-07T16:54:01.707Z,1.61
2019-02-07T16:56:11.401Z,1.61
2019-02-07T16:58:28.270Z,1.60
2019-02-07T17:00:40.390Z,1.58
2019-02-07T17:02:47.727Z,1.58
2019-02-07T17:04:55.037Z,1.60
2019-02-07T17:07:01.807Z,1.60
2019-02-07T17:09:12.147Z,1.60
2019-02-07T17:11:24.687Z,1.61
2019-02-07T17:13:35.347Z,1.59
2019-02-07T17:15:42.346Z,1.58
2019-02-07T17:17:49.686Z,1.58
2019-02-07T17:19:56.947Z,1.55
2019-02-07T17:22:04.807Z,1.53
2019-02-07T17:24:12.328Z,1.50
2019-02-07T17:26:19.227Z,1.46
2019-02-07T17:28:26.514Z,1.44
2019-02-07T17:30:33.549Z,1.45
2019-02-07T17:32:41.569Z,1.44
2019-02-07T17:34:48.327Z,1.44
2019-02-07T17:36:55.366Z,1.42
2019-02-07T17:39:02.446Z,1.38
2019-02-07T17:41:10.887Z,1.37
2019-02-07T17:43:19.063Z,1.35
2019-02-07T17:45:33.527Z,1.35
2019-02-07T17:47:40.366Z,1.33
2019-02-07T17:49:47.207Z,1.33
2019-02-07T17:51:55.449Z,1.34
2019-02-07T17:54:02.488Z,1.31
2019-02-07T17:56:09.388Z,1.30
2019-02-07T17:58:16.967Z,1.28
2019-02-07T18:00:41.333Z,1.27
2019-02-07T18:02:48.350Z,1.23
2019-02-07T18:04:55.989Z,1.24
2019-02-07T18:07:04.873Z,1.22
2019-02-07T18:09:11.627Z,1.22
2019-02-07T18:11:19.127Z,1.23
2019-02-07T18:13:26.307Z,1.21
2019-02-07T18:15:33.585Z,1.22
2019-02-07T18:17:40.566Z,1.19
2019-02-07T18:19:48.847Z,1.19
2019-02-07T18:21:57.333Z,1.18
2019-02-07T18:24:04.527Z,1.18
2019-02-07T18:26:11.767Z,1.23
2019-02-07T18:28:18.546Z,1.24
2019-02-07T18:30:25.467Z,1.24
2019-02-07T18:32:32.208Z,1.26
2019-02-07T18:34:41.034Z,1.28
2019-02-07T18:36:48.994Z,1.29
2019-02-07T18:38:56.007Z,1.30
2019-02-07T18:41:06.258Z,1.30
2019-02-07T18:43:14.328Z,1.30
2019-02-07T18:45:22.686Z,1.33
2019-02-07T18:47:29.607Z,1.38
2019-02-07T18:49:38.441Z,1.40
2019-02-07T18:51:45.995Z,1.43
2019-02-07T18:53:52.887Z,1.44
2019-02-07T18:56:00.354Z,1.47
2019-02-07T18:58:07.857Z,1.50
2019-02-07T19:00:26.806Z,1.54
2019-02-07T19:05:19.487Z,1.63
2019-02-07T19:07:26.727Z,1.66
2019-02-07T19:09:33.648Z,1.66
2019-02-07T19:11:40.928Z,1.74
2019-02-07T19:13:48.334Z,1.76
2019-02-07T19:16:00.440Z,1.79
2019-02-07T19:18:08.107Z,1.79
2019-02-07T19:20:18.093Z,1.81
2019-02-07T19:22:24.704Z,1.81
2019-02-07T19:24:31.803Z,1.81
2019-02-07T19:26:40.732Z,1.80
2019-02-07T19:28:49.033Z,1.85
2019-02-07T19:30:57.774Z,1.83
2019-02-07T19:33:04.884Z,1.83
2019-02-07T19:35:12.030Z,1.82
2019-02-07T19:37:18.653Z,1.81
2019-02-07T19:39:25.494Z,1.79
2019-02-07T19:41:32.503Z,1.79
2019-02-07T19:43:41.123Z,1.80
2019-02-07T19:45:47.983Z,1.77
2019-02-07T19:47:56.043Z,1.77
2019-02-07T19:50:02.555Z,1.77
2019-02-07T19:52:09.780Z,1.77
2019-02-07T19:54:16.414Z,1.74
2019-02-07T19:56:23.724Z,1.74
2019-02-07T19:58:31.043Z,1.73
2019-02-07T20:00:39.526Z,1.72
2019-02-07T20:02:46.853Z,1.71
2019-02-07T20:04:54.243Z,1.70
2019-02-07T20:07:04.411Z,1.69
2019-02-07T20:09:20.664Z,1.67
2019-02-07T20:11:27.806Z,1.67
2019-02-07T20:13:34.231Z,1.70
2019-02-07T20:15:45.095Z,1.69
2019-02-07T20:17:52.104Z,1.70
2019-02-07T20:19:58.859Z,1.67
2019-02-07T20:22:06.044Z,1.66
2019-02-07T20:24:13.286Z,1.65
2019-02-07T20:26:21.683Z,1.63
2019-02-07T20:28:30.844Z,1.62
2019-02-07T20:30:43.629Z,1.62
2019-02-07T20:32:54.131Z,1.66
2019-02-07T20:35:02.005Z,1.64
2019-02-07T20:37:13.085Z,1.61
2019-02-07T20:39:20.203Z,1.60
2019-02-07T20:41:27.810Z,1.57
2019-02-07T20:43:34.483Z,1.58
2019-02-07T20:45:41.204Z,1.55
2019-02-07T20:47:48.248Z,1.54
2019-02-07T20:49:55.406Z,1.51
2019-02-07T20:52:02.883Z,1.49
2019-02-07T20:54:09.845Z,1.46
2019-02-07T20:56:17.284Z,1.45
2019-02-07T20:58:24.324Z,1.42
2019-02-07T21:00:39.934Z,1.40
2019-02-07T21:02:47.492Z,1.39
2019-02-07T21:04:54.404Z,1.38
2019-02-07T21:07:02.083Z,1.38
2019-02-07T21:09:10.491Z,1.40
2019-02-07T21:11:17.772Z,1.40
2019-02-07T21:13:25.484Z,1.42
2019-02-07T21:15:32.364Z,1.43
2019-02-07T21:17:39.807Z,1.45
2019-02-07T21:19:46.908Z,1.49
2019-02-07T21:21:54.050Z,1.52
2019-02-07T21:24:03.566Z,1.56
2019-02-07T21:26:10.044Z,1.63
2019-02-07T21:28:17.403Z,1.65
2019-02-07T21:30:28.363Z,1.68
2019-02-07T21:32:35.683Z,1.68
2019-02-07T21:34:43.571Z,1.71
2019-02-07T21:36:50.725Z,1.74
2019-02-07T21:38:58.244Z,1.75
2019-02-07T21:41:06.044Z,1.77
2019-02-07T21:43:13.004Z,1.79
2019-02-07T21:45:22.003Z,1.80
2019-02-07T21:47:29.605Z,1.81
2019-02-07T21:49:36.406Z,1.81
2019-02-07T21:51:43.686Z,1.82
2019-02-07T21:53:50.859Z,1.84
2019-02-07T21:55:57.964Z,1.89
2019-02-07T21:58:05.853Z,1.89
2019-02-07T22:00:23.012Z,1.89
2019-02-07T22:02:30.284Z,1.86
2019-02-07T22:04:37.485Z,1.86
2019-02-07T22:06:44.883Z,1.83
2019-02-07T22:08:51.926Z,1.84
2019-02-07T22:10:58.963Z,1.83
2019-02-07T22:13:06.807Z,1.82
2019-02-07T22:15:26.883Z,1.84
2019-02-07T22:17:34.404Z,1.87
2019-02-07T22:19:41.886Z,1.86
2019-02-07T22:21:49.124Z,1.86
2019-02-07T22:23:56.123Z,1.84
2019-02-07T22:26:03.117Z,1.86
2019-02-07T22:28:11.005Z,1.79
2019-02-07T22:30:22.110Z,1.79
2019-02-07T22:32:29.444Z,1.77
2019-02-07T22:34:36.764Z,1.73
2019-02-07T22:36:43.803Z,1.64
2019-02-07T22:38:51.204Z,1.65
2019-02-07T22:40:59.332Z,1.62
2019-02-07T22:43:07.006Z,1.62
2019-02-07T22:45:18.004Z,1.58
2019-02-07T22:47:26.205Z,1.56
2019-02-07T22:49:33.323Z,1.55
2019-02-07T22:51:40.204Z,1.55
2019-02-07T22:53:46.964Z,1.54
2019-02-07T22:55:53.863Z,1.55
2019-02-07T22:58:01.723Z,1.51
2019-02-07T23:00:37.205Z,1.47
2019-02-07T23:02:45.804Z,1.45
2019-02-07T23:04:53.003Z,1.45
2019-02-07T23:07:00.724Z,1.47
2019-02-07T23:09:11.527Z,1.46
2019-02-07T23:11:18.603Z,1.47
2019-02-07T23:13:26.724Z,1.43
2019-02-07T23:15:35.244Z,1.42
2019-02-07T23:17:42.764Z,1.41
2019-02-07T23:19:49.965Z,1.40
2019-02-07T23:21:56.849Z,1.36
2019-02-07T23:24:04.095Z,1.41
2019-02-07T23:26:10.844Z,1.44
2019-02-07T23:28:17.724Z,1.49
2019-02-07T23:30:25.124Z,1.47
2019-02-07T23:32:32.724Z,1.48
2019-02-07T23:34:40.884Z,1.48
2019-02-07T23:36:48.684Z,1.47
2019-02-07T23:38:56.044Z,1.47
2019-02-07T23:41:03.412Z,1.45
2019-02-07T23:43:11.083Z,1.43
2019-02-07T23:45:24.084Z,1.46
2019-02-07T23:47:30.844Z,1.49
2019-02-07T23:49:37.725Z,1.52
2019-02-07T23:51:44.804Z,1.55
2019-02-07T23:53:53.093Z,1.53
2019-02-07T23:56:01.884Z,1.54
2019-02-07T23:58:08.763Z,1.57
